createdAt,value
2022-09-12T00:00:25.166Z,101204.91
2022-09-12T00:01:15.354Z,101203.31
2022-09-12T00:02:02.352Z,101206.41
2022-09-12T00:02:53.822Z,101208.03
2022-09-12T00:03:41.047Z,101199.25
2022-09-12T00:04:28.142Z,101205.38
2022-09-12T00:05:14.599Z,101202.47
2022-09-12T00:06:01.038Z,101207.00
2022-09-12T00:06:47.508Z,101210.13
2022-09-12T00:07:34.204Z,101204.44
2022-09-12T00:08:20.706Z,101202.59
2022-09-12T00:09:10.426Z,101204.91
2022-09-12T00:09:57.026Z,101200.38
2022-09-12T00:10:44.440Z,101206.53
2022-09-12T00:11:31.818Z,101204.13
2022-09-12T00:12:18.365Z,101205.72
2022-09-12T00:13:04.802Z,101205.72
2022-09-12T00:13:52.061Z,101205.16
2022-09-12T00:14:38.918Z,101208.84
2022-09-12T00:15:25.355Z,101198.44
2022-09-12T00:16:21.920Z,101205.81
2022-09-12T00:17:08.553Z,101200.50
2022-09-12T00:17:55.085Z,101198.44
2022-09-12T00:18:41.586Z,101197.59
2022-09-12T00:19:29.063Z,101199.69
2022-09-12T00:20:15.589Z,101197.84
2022-09-12T00:21:04.891Z,101197.47
2022-09-12T00:21:51.406Z,101202.31
2022-09-12T00:22:37.905Z,101199.09
2022-09-12T00:23:24.443Z,101194.13
2022-09-12T00:24:11.703Z,101196.44
2022-09-12T00:24:58.286Z,101197.59
2022-09-12T00:25:47.346Z,101196.34
2022-09-12T00:26:33.779Z,101196.09
2022-09-12T00:27:20.764Z,101193.91
2022-09-12T00:28:07.177Z,101191.44
2022-09-12T00:28:53.708Z,101192.28
2022-09-12T00:29:41.417Z,101187.19
2022-09-12T00:30:27.845Z,101190.06
2022-09-12T00:31:17.439Z,101192.50
2022-09-12T00:32:04.630Z,101192.50
2022-09-12T00:32:51.512Z,101191.91
2022-09-12T00:33:38.756Z,101182.91
2022-09-12T00:34:25.497Z,101188.47
2022-09-12T00:35:12.896Z,101180.69
2022-09-12T00:35:59.587Z,101191.78
2022-09-12T00:36:46.016Z,101183.78
2022-09-12T00:37:32.481Z,101184.94
2022-09-12T00:38:20.287Z,101181.69
2022-09-12T00:39:08.487Z,101191.53
2022-09-12T00:39:54.929Z,101186.06
2022-09-12T00:40:43.033Z,101187.09
2022-09-12T00:41:35.933Z,101185.13
2022-09-12T00:42:22.357Z,101184.56
2022-09-12T00:43:33.844Z,101181.56
2022-09-12T00:44:23.417Z,101185.25
2022-09-12T00:45:24.304Z,101181.44
2022-09-12T00:46:16.647Z,101178.19
2022-09-12T00:47:20.997Z,101181.06
2022-09-12T00:48:22.404Z,101180.72
2022-09-12T00:49:29.297Z,101173.63
2022-09-12T00:50:17.814Z,101167.72
2022-09-12T00:51:05.021Z,101176.19
2022-09-12T00:51:59.453Z,101169.84
2022-09-12T00:52:59.912Z,101176.53
2022-09-12T00:53:50.561Z,101173.09
2022-09-12T00:54:49.319Z,101169.03
2022-09-12T00:55:42.562Z,101165.13
2022-09-12T00:56:29.989Z,101166.97
2022-09-12T00:57:20.590Z,101168.13
2022-09-12T00:58:13.623Z,101167.66
2022-09-12T00:59:21.021Z,101161.97
2022-09-12T01:00:15.575Z,101171.22
2022-09-12T01:01:12.589Z,101175.16
2022-09-12T01:01:59.350Z,101168.44
2022-09-12T01:03:01.095Z,101169.34
2022-09-12T01:03:47.594Z,101177.44
2022-09-12T01:04:37.738Z,101173.53
2022-09-12T01:05:28.285Z,101169.28
2022-09-12T01:06:27.917Z,101170.88
2022-09-12T01:07:15.333Z,101166.00
2022-09-12T01:08:04.622Z,101174.47
2022-09-12T01:08:52.578Z,101167.50
2022-09-12T01:09:41.925Z,101164.63
2022-09-12T01:10:30.698Z,101167.59
2022-09-12T01:11:20.322Z,101170.47
2022-09-12T01:12:06.800Z,101168.50
2022-09-12T01:12:53.919Z,101171.63
2022-09-12T01:13:40.759Z,101170.22
2022-09-12T01:14:27.874Z,101170.09
2022-09-12T01:15:15.049Z,101169.50
2022-09-12T01:16:05.927Z,101167.44
2022-09-12T01:16:52.811Z,101171.38
2022-09-12T01:18:01.820Z,101168.84
2022-09-12T01:19:09.035Z,101164.72
2022-09-12T01:20:36.944Z,101169.28
2022-09-12T01:22:00.061Z,101172.97
2022-09-12T01:23:41.505Z,101168.19
2022-09-12T01:24:51.702Z,101163.53
2022-09-12T01:25:56.026Z,101171.16
2022-09-12T01:27:17.716Z,101166.06
2022-09-12T01:28:39.806Z,101162.50
2022-09-12T01:29:54.087Z,101171.97
2022-09-12T01:30:40.502Z,101170.81
2022-09-12T01:32:03.805Z,101166.16
2022-09-12T01:33:35.198Z,101169.06
2022-09-12T01:34:47.610Z,101166.03
2022-09-12T01:36:11.354Z,101163.00
2022-09-12T01:37:28.882Z,101159.88
2022-09-12T01:38:26.329Z,101156.66
2022-09-12T01:39:39.589Z,101156.66
2022-09-12T01:40:49.087Z,101159.53
2022-09-12T01:41:49.938Z,101155.63
2022-09-12T01:43:01.307Z,101155.84
2022-09-12T01:44:01.593Z,101153.78
2022-09-12T01:45:03.429Z,101162.78
2022-09-12T01:45:49.800Z,101160.59
2022-09-12T01:46:49.691Z,101160.09
2022-09-12T01:47:51.684Z,101157.69
2022-09-12T01:49:00.191Z,101152.97
2022-09-12T01:50:01.948Z,101154.78
2022-09-12T01:51:13.543Z,101154.78
2022-09-12T01:52:09.718Z,101156.03
2022-09-12T01:53:04.646Z,101160.50
2022-09-12T01:53:58.575Z,101152.19
2022-09-12T01:55:18.174Z,101155.66
2022-09-12T01:56:17.728Z,101151.38
2022-09-12T01:57:13.549Z,101137.97
2022-09-12T01:58:09.659Z,101148.13
2022-09-12T01:59:10.551Z,101149.16
2022-09-12T02:00:07.020Z,101143.84
2022-09-12T02:01:34.215Z,101141.53
2022-09-12T02:02:51.868Z,101138.53
2022-09-12T02:03:49.521Z,101144.44
2022-09-12T02:04:55.483Z,101141.78
2022-09-12T02:05:56.326Z,101144.66
2022-09-12T02:07:00.137Z,101134.47
2022-09-12T02:07:53.674Z,101137.72
2022-09-12T02:08:56.254Z,101141.19
2022-09-12T02:10:01.939Z,101141.19
2022-09-12T02:11:12.584Z,101145.94
2022-09-12T02:12:01.964Z,101146.94
2022-09-12T02:13:07.071Z,101137.97
2022-09-12T02:14:01.270Z,101138.97
2022-09-12T02:15:00.660Z,101139.78
2022-09-12T02:15:58.353Z,101140.25
2022-09-12T02:17:00.107Z,101144.75
2022-09-12T02:17:52.253Z,101141.94
2022-09-12T02:18:50.146Z,101137.22
2022-09-12T02:19:45.755Z,101134.56
2022-09-12T02:20:54.625Z,101132.13
2022-09-12T02:21:50.404Z,101133.75
2022-09-12T02:22:40.294Z,101135.31
2022-09-12T02:23:30.925Z,101140.44
2022-09-12T02:24:20.207Z,101134.84
2022-09-12T02:25:11.599Z,101136.84
2022-09-12T02:26:09.344Z,101134.84
2022-09-12T02:27:12.688Z,101138.97
2022-09-12T02:28:08.841Z,101132.50
2022-09-12T02:28:56.873Z,101136.78
2022-09-12T02:29:44.927Z,101132.66
2022-09-12T02:30:55.054Z,101130.22
2022-09-12T02:31:47.478Z,101123.50
2022-09-12T02:32:47.283Z,101134.13
2022-09-12T02:33:49.964Z,101121.50
2022-09-12T02:34:53.253Z,101120.13
2022-09-12T02:35:47.596Z,101129.78
2022-09-12T02:37:00.846Z,101130.81
2022-09-12T02:37:56.309Z,101124.69
2022-09-12T02:38:48.041Z,101124.03
2022-09-12T02:39:35.136Z,101122.78
2022-09-12T02:40:23.247Z,101118.72
2022-09-12T02:41:10.124Z,101120.03
2022-09-12T02:42:01.502Z,101115.56
2022-09-12T02:42:47.963Z,101119.84
2022-09-12T02:43:34.457Z,101124.56
2022-09-12T02:44:21.564Z,101123.53
2022-09-12T02:45:09.571Z,101123.72
2022-09-12T02:45:56.315Z,101127.22
2022-09-12T02:46:50.961Z,101121.28
2022-09-12T02:48:01.668Z,101122.31
2022-09-12T02:48:48.082Z,101122.31
2022-09-12T02:49:34.494Z,101117.84
2022-09-12T02:50:21.281Z,101112.53
2022-09-12T02:51:08.448Z,101115.19
2022-09-12T02:51:55.688Z,101112.53
2022-09-12T02:52:44.027Z,101115.19
2022-09-12T02:53:31.052Z,101112.53
2022-09-12T02:54:19.129Z,101111.69
2022-09-12T02:55:06.558Z,101105.97
2022-09-12T02:55:53.501Z,101107.59
2022-09-12T02:56:42.653Z,101108.63
2022-09-12T02:57:29.150Z,101112.31
2022-09-12T02:58:25.397Z,101109.66
2022-09-12T02:59:17.752Z,101114.72
2022-09-12T03:00:06.013Z,101107.78
2022-09-12T03:01:29.265Z,101107.00
2022-09-12T03:03:02.315Z,101110.69
2022-09-12T03:04:10.591Z,101112.53
2022-09-12T03:05:52.031Z,101102.56
2022-09-12T03:07:03.365Z,101105.81
2022-09-12T03:08:21.438Z,101101.53
2022-09-12T03:09:21.119Z,101099.13
2022-09-12T03:10:24.920Z,101098.28
2022-09-12T03:11:48.630Z,101100.13
2022-09-12T03:12:47.841Z,101097.72
2022-09-12T03:13:55.857Z,101101.97
2022-09-12T03:14:45.375Z,101103.03
2022-09-12T03:15:53.217Z,101104.84
2022-09-12T03:17:00.443Z,101099.78
2022-09-12T03:18:09.520Z,101097.56
2022-09-12T03:19:09.036Z,101098.16
2022-09-12T03:20:38.977Z,101104.28
2022-09-12T03:21:37.253Z,101102.44
2022-09-12T03:22:53.828Z,101106.72
2022-09-12T03:24:22.801Z,101104.06
2022-09-12T03:25:27.871Z,101102.44
2022-09-12T03:26:36.250Z,101105.06
2022-09-12T03:27:34.161Z,101100.56
2022-09-12T03:28:22.765Z,101104.06
2022-09-12T03:29:12.925Z,101116.50
2022-09-12T03:30:00.048Z,101110.16
2022-09-12T03:30:49.133Z,101102.88
2022-09-12T03:31:35.942Z,101117.56
2022-09-12T03:32:43.931Z,101113.28
2022-09-12T03:33:30.509Z,101107.97
2022-09-12T03:34:17.363Z,101107.13
2022-09-12T03:35:04.485Z,101110.03
2022-09-12T03:35:53.028Z,101107.59
2022-09-12T03:36:41.035Z,101109.41
2022-09-12T03:37:27.427Z,101107.59
2022-09-12T03:38:14.189Z,101108.41
2022-09-12T03:39:00.628Z,101111.28
2022-09-12T03:39:47.055Z,101104.34
2022-09-12T03:40:34.930Z,101109.66
2022-09-12T03:41:21.519Z,101113.31
2022-09-12T03:42:08.104Z,101103.78
2022-09-12T03:42:54.551Z,101110.09
2022-09-12T03:43:41.403Z,101105.22
2022-09-12T03:44:27.896Z,101111.13
2022-09-12T03:45:14.570Z,101101.16
2022-09-12T03:46:01.212Z,101113.00
2022-09-12T03:46:47.722Z,101111.34
2022-09-12T03:47:34.350Z,101111.34
2022-09-12T03:48:21.081Z,101118.28
2022-09-12T03:49:07.725Z,101109.28
2022-09-12T03:49:54.129Z,101113.78
2022-09-12T03:50:40.529Z,101115.03
2022-09-12T03:51:27.351Z,101114.25
2022-09-12T03:52:13.805Z,101114.25
2022-09-12T03:53:00.326Z,101110.16
2022-09-12T03:53:46.751Z,101106.69
2022-09-12T03:54:33.384Z,101109.97
2022-09-12T03:55:19.890Z,101104.06
2022-09-12T03:56:11.192Z,101110.97
2022-09-12T03:56:57.789Z,101103.03
2022-09-12T03:57:44.717Z,101100.78
2022-09-12T03:58:31.298Z,101102.41
2022-09-12T03:59:17.712Z,101099.78
2022-09-12T04:00:08.849Z,101099.19
2022-09-12T04:01:12.426Z,101097.34
2022-09-12T04:01:59.173Z,101093.88
2022-09-12T04:02:45.659Z,101093.88
2022-09-12T04:03:32.086Z,101098.38
2022-09-12T04:04:18.701Z,101093.28
2022-09-12T04:05:05.422Z,101094.91
2022-09-12T04:05:52.837Z,101093.28
2022-09-12T04:06:39.353Z,101100.44
2022-09-12T04:07:25.867Z,101094.91
2022-09-12T04:08:12.483Z,101100.22
2022-09-12T04:08:59.170Z,101090.03
2022-09-12T04:09:48.161Z,101099.63
2022-09-12T04:10:34.693Z,101101.25
2022-09-12T04:11:23.017Z,101098.81
2022-09-12T04:12:09.629Z,101100.88
2022-09-12T04:12:56.023Z,101094.78
2022-09-12T04:13:44.796Z,101099.25
2022-09-12T04:14:31.387Z,101103.75
2022-09-12T04:15:17.803Z,101098.44
2022-09-12T04:16:05.786Z,101099.47
2022-09-12T04:16:52.315Z,101101.09
2022-09-12T04:17:38.797Z,101088.63
2022-09-12T04:18:26.035Z,101100.06
2022-09-12T04:19:12.524Z,101099.25
2022-09-12T04:19:58.920Z,101105.38
2022-09-12T04:20:45.544Z,101100.28
2022-09-12T04:21:32.029Z,101102.94
2022-09-12T04:22:18.457Z,101093.94
2022-09-12T04:23:04.856Z,101098.44
2022-09-12T04:23:52.009Z,101098.44
2022-09-12T04:24:38.416Z,101101.69
2022-09-12T04:25:24.919Z,101103.31
2022-09-12T04:26:13.933Z,101096.97
2022-09-12T04:27:01.379Z,101097.34
2022-09-12T04:27:50.160Z,101093.88
2022-09-12T04:28:38.091Z,101094.22
2022-09-12T04:29:24.701Z,101092.41
2022-09-12T04:30:11.576Z,101089.53
2022-09-12T04:31:20.103Z,101087.09
2022-09-12T04:32:07.008Z,101090.56
2022-09-12T04:32:53.428Z,101089.09
2022-09-12T04:33:39.923Z,101090.91
2022-09-12T04:34:26.403Z,101096.22
2022-09-12T04:35:13.958Z,101093.56
2022-09-12T04:36:10.001Z,101090.91
2022-09-12T04:36:56.449Z,101093.44
2022-09-12T04:37:42.837Z,101089.75
2022-09-12T04:38:29.233Z,101087.09
2022-09-12T04:39:16.907Z,101088.13
2022-09-12T04:40:03.727Z,101083.84
2022-09-12T04:40:50.175Z,101081.41
2022-09-12T04:41:38.831Z,101088.59
2022-09-12T04:42:25.242Z,101087.53
2022-09-12T04:43:14.572Z,101084.66
2022-09-12T04:44:21.368Z,101080.63
2022-09-12T04:45:08.386Z,101082.03
2022-09-12T04:45:54.780Z,101085.69
2022-09-12T04:46:45.306Z,101083.84
2022-09-12T04:47:31.787Z,101078.53
2022-09-12T04:48:18.955Z,101087.53
2022-09-12T04:49:05.795Z,101088.59
2022-09-12T04:49:52.356Z,101081.19
2022-09-12T04:50:38.821Z,101076.72
2022-09-12T04:51:28.783Z,101088.13
2022-09-12T04:52:15.233Z,101078.09
2022-09-12T04:53:01.733Z,101080.91
2022-09-12T04:53:51.928Z,101081.47
2022-09-12T04:54:38.631Z,101078.25
2022-09-12T04:55:25.293Z,101080.91
2022-09-12T04:56:12.084Z,101079.28
2022-09-12T04:56:58.952Z,101078.25
2022-09-12T04:57:45.574Z,101078.47
2022-09-12T04:58:33.304Z,101081.31
2022-09-12T04:59:21.774Z,101073.38
2022-09-12T05:00:08.974Z,101077.09
2022-09-12T05:00:55.967Z,101077.66
2022-09-12T05:01:43.456Z,101074.44
2022-09-12T05:02:29.949Z,101074.19
2022-09-12T05:03:16.377Z,101074.63
2022-09-12T05:04:03.740Z,101074.44
2022-09-12T05:04:50.197Z,101064.84
2022-09-12T05:05:36.622Z,101071.31
2022-09-12T05:06:30.086Z,101068.66
2022-09-12T05:07:16.823Z,101070.28
2022-09-12T05:08:03.267Z,101066.00
2022-09-12T05:08:51.384Z,101065.78
2022-09-12T05:09:37.805Z,101062.88
2022-09-12T05:10:24.539Z,101063.72
2022-09-12T05:11:14.197Z,101061.88
2022-09-12T05:12:05.187Z,101061.88
2022-09-12T05:12:52.656Z,101057.81
2022-09-12T05:13:40.158Z,101062.47
2022-09-12T05:14:26.608Z,101062.47
2022-09-12T05:15:13.257Z,101061.44
2022-09-12T05:16:01.679Z,101057.59
2022-09-12T05:16:49.569Z,101057.38
2022-09-12T05:17:36.203Z,101062.00
2022-09-12T05:18:22.852Z,101058.19
2022-09-12T05:19:11.544Z,101064.47
2022-09-12T05:19:58.190Z,101062.59
2022-09-12T05:20:44.600Z,101062.59
2022-09-12T05:21:31.263Z,101063.41
2022-09-12T05:22:17.654Z,101064.00
2022-09-12T05:23:04.146Z,101064.59
2022-09-12T05:23:51.926Z,101060.09
2022-09-12T05:24:39.107Z,101073.13
2022-09-12T05:25:25.971Z,101066.56
2022-09-12T05:26:15.223Z,101065.53
2022-09-12T05:27:04.785Z,101067.16
2022-09-12T05:27:55.207Z,101064.28
2022-09-12T05:28:42.990Z,101061.63
2022-09-12T05:29:29.571Z,101064.63
2022-09-12T05:30:16.197Z,101064.06
2022-09-12T05:31:17.764Z,101061.75
2022-09-12T05:32:04.758Z,101060.72
2022-09-12T05:32:51.454Z,101061.56
2022-09-12T05:33:39.899Z,101060.28
2022-09-12T05:34:27.798Z,101059.47
2022-09-12T05:35:14.358Z,101056.13
2022-09-12T05:36:01.462Z,101061.00
2022-09-12T05:36:47.961Z,101068.28
2022-09-12T05:37:34.382Z,101067.03
2022-09-12T05:38:20.781Z,101060.69
2022-09-12T05:39:07.217Z,101064.72
2022-09-12T05:39:53.801Z,101067.97
2022-09-12T05:40:40.268Z,101062.88
2022-09-12T05:41:33.058Z,101062.44
2022-09-12T05:42:19.462Z,101069.38
2022-09-12T05:43:05.861Z,101067.28
2022-09-12T05:43:59.234Z,101069.50
2022-09-12T05:44:45.693Z,101070.31
2022-09-12T05:45:32.306Z,101067.44
2022-09-12T05:46:21.623Z,101068.84
2022-09-12T05:47:11.614Z,101070.22
2022-09-12T05:47:58.117Z,101075.31
2022-09-12T05:48:47.128Z,101070.78
2022-09-12T05:49:35.251Z,101078.56
2022-09-12T05:50:21.677Z,101074.03
2022-09-12T05:51:17.421Z,101073.56
2022-09-12T05:52:04.372Z,101081.13
2022-09-12T05:52:50.817Z,101079.25
2022-09-12T05:53:38.744Z,101072.91
2022-09-12T05:54:28.330Z,101076.97
2022-09-12T05:55:17.489Z,101082.63
2022-09-12T05:56:11.013Z,101081.84
2022-09-12T05:56:57.504Z,101078.94
2022-09-12T05:57:46.015Z,101079.53
2022-09-12T05:58:33.874Z,101082.75
2022-09-12T05:59:21.586Z,101088.44
2022-09-12T06:00:09.867Z,101072.47
2022-09-12T06:01:07.330Z,101078.16
2022-09-12T06:01:53.742Z,101076.88
2022-09-12T06:02:40.719Z,101084.19
2022-09-12T06:03:27.274Z,101078.63
2022-09-12T06:04:14.508Z,101087.53
2022-09-12T06:05:01.930Z,101088.34
2022-09-12T06:05:50.646Z,101081.16
2022-09-12T06:06:44.820Z,101084.41
2022-09-12T06:07:32.663Z,101078.06
2022-09-12T06:08:19.117Z,101086.41
2022-09-12T06:09:07.044Z,101087.44
2022-09-12T06:09:53.840Z,101092.03
2022-09-12T06:10:40.334Z,101090.56
2022-09-12T06:11:29.747Z,101086.63
2022-09-12T06:12:16.212Z,101088.25
2022-09-12T06:13:03.894Z,101091.31
2022-09-12T06:13:53.260Z,101087.56
2022-09-12T06:14:39.639Z,101095.09
2022-09-12T06:15:26.058Z,101093.84
2022-09-12T06:16:17.989Z,101093.59
2022-09-12T06:17:06.021Z,101097.66
2022-09-12T06:17:54.445Z,101087.59
2022-09-12T06:18:42.283Z,101093.25
2022-09-12T06:19:28.717Z,101097.06
2022-09-12T06:20:15.432Z,101089.88
2022-09-12T06:21:07.302Z,101088.41
2022-09-12T06:21:54.167Z,101089.19
2022-09-12T06:22:40.819Z,101091.41
2022-09-12T06:23:27.482Z,101093.34
2022-09-12T06:24:13.969Z,101085.94
2022-09-12T06:25:00.388Z,101093.69
2022-09-12T06:25:49.438Z,101079.94
2022-09-12T06:26:36.563Z,101091.25
2022-09-12T06:27:22.960Z,101092.06
2022-09-12T06:28:09.393Z,101088.13
2022-09-12T06:28:57.994Z,101087.66
2022-09-12T06:29:44.426Z,101085.56
2022-09-12T06:30:31.371Z,101084.53
2022-09-12T06:31:20.876Z,101081.16
2022-09-12T06:32:07.599Z,101085.78
2022-09-12T06:32:54.035Z,101086.38
2022-09-12T06:33:44.126Z,101092.59
2022-09-12T06:34:30.922Z,101085.97
2022-09-12T06:35:17.476Z,101086.31
2022-09-12T06:36:12.564Z,101079.72
2022-09-12T06:36:59.471Z,101090.25
2022-09-12T06:37:45.893Z,101087.09
2022-09-12T06:38:33.150Z,101089.06
2022-09-12T06:39:22.567Z,101092.28
2022-09-12T06:40:10.695Z,101096.66
2022-09-12T06:41:00.493Z,101096.19
2022-09-12T06:41:49.545Z,101093.88
2022-09-12T06:42:36.000Z,101094.66
2022-09-12T06:43:22.624Z,101096.38
2022-09-12T06:44:14.107Z,101089.19
2022-09-12T06:45:00.628Z,101086.72
2022-09-12T06:45:51.086Z,101090.19
2022-09-12T06:46:37.526Z,101090.75
2022-09-12T06:47:23.968Z,101091.88
2022-09-12T06:48:10.396Z,101089.41
2022-09-12T06:48:59.353Z,101090.09
2022-09-12T06:49:45.733Z,101090.16
2022-09-12T06:50:32.278Z,101093.88
2022-09-12T06:51:22.997Z,101098.81
2022-09-12T06:52:09.482Z,101094.88
2022-09-12T06:53:00.276Z,101103.13
2022-09-12T06:53:48.402Z,101096.31
2022-09-12T06:54:34.918Z,101092.84
2022-09-12T06:55:27.645Z,101096.63
2022-09-12T06:56:21.176Z,101096.47
2022-09-12T06:57:08.886Z,101094.06
2022-09-12T06:57:55.589Z,101091.47
2022-09-12T06:58:43.431Z,101093.34
2022-09-12T06:59:30.118Z,101100.38
2022-09-12T07:00:17.845Z,101097.66
2022-09-12T07:01:12.982Z,101097.34
2022-09-12T07:01:59.582Z,101098.16
2022-09-12T07:02:46.072Z,101098.97
2022-09-12T07:03:33.928Z,101099.78
2022-09-12T07:04:20.322Z,101088.84
2022-09-12T07:05:07.685Z,101097.97
2022-09-12T07:05:54.114Z,101098.81
2022-09-12T07:06:42.789Z,101095.06
2022-09-12T07:07:31.546Z,101086.81
2022-09-12T07:08:17.986Z,101099.09
2022-09-12T07:09:07.926Z,101087.38
2022-09-12T07:09:54.330Z,101088.53
2022-09-12T07:10:40.939Z,101091.25
2022-09-12T07:11:31.761Z,101092.63
2022-09-12T07:12:18.253Z,101091.69
2022-09-12T07:13:04.673Z,101095.16
2022-09-12T07:13:54.609Z,101092.56
2022-09-12T07:14:41.544Z,101094.69
2022-09-12T07:15:28.000Z,101097.59
2022-09-12T07:16:19.210Z,101092.00
2022-09-12T07:17:06.755Z,101094.19
2022-09-12T07:17:53.266Z,101095.53
2022-09-12T07:18:40.605Z,101096.13
2022-09-12T07:19:27.005Z,101094.25
2022-09-12T07:20:13.459Z,101086.28
2022-09-12T07:21:01.860Z,101090.25
2022-09-12T07:21:48.384Z,101095.13
2022-09-12T07:22:34.880Z,101092.19
2022-09-12T07:23:21.334Z,101092.44
2022-09-12T07:24:09.912Z,101087.16
2022-09-12T07:24:57.574Z,101087.81
2022-09-12T07:25:43.979Z,101092.34
2022-09-12T07:26:30.490Z,101092.66
2022-09-12T07:27:16.888Z,101096.38
2022-09-12T07:28:03.449Z,101094.53
2022-09-12T07:28:54.582Z,101094.84
2022-09-12T07:29:40.996Z,101093.28
2022-09-12T07:30:27.502Z,101094.66
2022-09-12T07:31:17.630Z,101090.91
2022-09-12T07:32:05.764Z,101094.97
2022-09-12T07:32:55.516Z,101087.72
2022-09-12T07:33:43.450Z,101089.41
2022-09-12T07:34:29.876Z,101098.47
2022-09-12T07:35:16.302Z,101100.19
2022-09-12T07:36:11.683Z,101096.72
2022-09-12T07:36:58.608Z,101093.31
2022-09-12T07:37:45.005Z,101095.97
2022-09-12T07:38:31.451Z,101102.19
2022-09-12T07:39:18.090Z,101101.16
2022-09-12T07:40:04.878Z,101103.09
2022-09-12T07:40:51.287Z,101101.03
2022-09-12T07:41:37.923Z,101107.22
2022-09-12T07:42:24.316Z,101104.06
2022-09-12T07:43:10.741Z,101104.88
2022-09-12T07:43:59.928Z,101106.59
2022-09-12T07:44:46.351Z,101102.84
2022-09-12T07:45:32.863Z,101102.09
2022-09-12T07:46:20.145Z,101109.16
2022-09-12T07:47:06.882Z,101106.50
2022-09-12T07:47:54.715Z,101109.19
2022-09-12T07:48:41.406Z,101106.28
2022-09-12T07:49:27.829Z,101102.31
2022-09-12T07:50:14.375Z,101108.53
2022-09-12T07:51:03.956Z,101108.00
2022-09-12T07:51:50.422Z,101109.63
2022-09-12T07:52:36.842Z,101108.91
2022-09-12T07:53:23.250Z,101107.56
2022-09-12T07:54:10.338Z,101100.91
2022-09-12T07:54:56.744Z,101104.94
2022-09-12T07:55:43.209Z,101105.53
2022-09-12T07:56:32.751Z,101103.72
2022-09-12T07:57:21.226Z,101103.97
2022-09-12T07:58:07.631Z,101097.28
2022-09-12T07:58:54.599Z,101109.63
2022-09-12T07:59:52.423Z,101108.84
2022-09-12T08:00:39.798Z,101106.22
2022-09-12T08:01:26.957Z,101106.25
2022-09-12T08:02:17.191Z,101109.50
2022-09-12T08:03:04.360Z,101107.41
2022-09-12T08:03:56.899Z,101111.44
2022-09-12T08:04:44.168Z,101107.13
2022-09-12T08:05:30.871Z,101104.72
2022-09-12T08:06:20.242Z,101113.84
2022-09-12T08:07:07.308Z,101102.63
2022-09-12T08:07:57.663Z,101101.81
2022-09-12T08:08:44.319Z,101107.44
2022-09-12T08:09:30.727Z,101109.59
2022-09-12T08:10:17.227Z,101107.44
2022-09-12T08:11:07.095Z,101106.38
2022-09-12T08:11:53.569Z,101101.56
2022-09-12T08:12:40.037Z,101111.72
2022-09-12T08:13:30.296Z,101106.38
2022-09-12T08:14:17.669Z,101101.81
2022-09-12T08:15:04.686Z,101103.69
2022-09-12T08:15:51.117Z,101110.41
2022-09-12T08:16:37.904Z,101108.25
2022-09-12T08:17:24.287Z,101099.16
2022-09-12T08:18:11.254Z,101107.72
2022-09-12T08:18:59.671Z,101104.25
2022-09-12T08:19:46.097Z,101108.00
2022-09-12T08:20:32.856Z,101108.81
2022-09-12T08:21:28.501Z,101109.59
2022-09-12T08:22:15.312Z,101106.66
2022-09-12T08:23:01.837Z,101105.34
2022-09-12T08:23:53.546Z,101108.53
2022-09-12T08:24:39.999Z,101105.34
2022-09-12T08:25:26.654Z,101103.44
2022-09-12T08:26:14.008Z,101109.09
2022-09-12T08:27:00.489Z,101104.53
2022-09-12T08:27:46.940Z,101112.28
2022-09-12T08:28:35.937Z,101108.53
2022-09-12T08:29:22.349Z,101107.47
2022-09-12T08:30:09.835Z,101110.16
2022-09-12T08:31:05.671Z,101111.22
2022-09-12T08:31:56.610Z,101110.16
2022-09-12T08:32:43.968Z,101112.28
2022-09-12T08:33:34.640Z,101112.03
2022-09-12T08:34:21.231Z,101112.84
2022-09-12T08:35:08.016Z,101109.09
2022-09-12T08:35:54.516Z,101108.81
2022-09-12T08:36:41.154Z,101109.09
2022-09-12T08:37:31.264Z,101110.44
2022-09-12T08:38:19.584Z,101101.28
2022-09-12T08:39:08.050Z,101109.09
2022-09-12T08:39:54.566Z,101110.44
2022-09-12T08:40:53.120Z,101101.56
2022-09-12T08:41:43.200Z,101109.09
2022-09-12T08:42:51.957Z,101102.66
2022-09-12T08:44:09.221Z,101104.78
2022-09-12T08:45:08.175Z,101108.81
2022-09-12T08:46:08.471Z,101098.91
2022-09-12T08:47:09.864Z,101098.34
2022-09-12T08:47:56.948Z,101101.59
2022-09-12T08:48:46.436Z,101106.41
2022-09-12T08:50:00.759Z,101099.16
2022-09-12T08:50:49.899Z,101103.97
2022-09-12T08:51:37.962Z,101101.56
2022-09-12T08:52:48.877Z,101105.59
2022-09-12T08:53:37.437Z,101105.88
2022-09-12T08:54:29.422Z,101108.31
2022-09-12T08:55:33.334Z,101108.53
2022-09-12T08:56:19.965Z,101107.72
2022-09-12T08:57:09.814Z,101114.44
2022-09-12T08:57:57.439Z,101102.91
2022-09-12T08:58:45.965Z,101111.75
2022-09-12T08:59:40.308Z,101111.47
2022-09-12T09:00:40.431Z,101111.75
2022-09-12T09:01:35.529Z,101106.63
2022-09-12T09:02:50.874Z,101107.44
2022-09-12T09:04:06.084Z,101102.06
2022-09-12T09:05:15.394Z,101101.50
2022-09-12T09:06:37.520Z,101106.13
2022-09-12T09:08:00.677Z,101106.91
2022-09-12T09:09:08.569Z,101093.44
2022-09-12T09:10:41.695Z,101093.72
2022-09-12T09:11:52.008Z,101103.94
2022-09-12T09:12:50.565Z,101092.34
2022-09-12T09:14:23.851Z,101098.22
2022-09-12T09:15:29.275Z,101089.88
2022-09-12T09:16:33.244Z,101093.31
2022-09-12T09:17:27.703Z,101093.84
2022-09-12T09:18:39.156Z,101097.84
2022-09-12T09:19:34.193Z,101093.25
2022-09-12T09:20:57.665Z,101088.91
2022-09-12T09:22:00.785Z,101088.31
2022-09-12T09:22:54.458Z,101080.72
2022-09-12T09:23:49.450Z,101079.97
2022-09-12T09:25:01.519Z,101084.72
2022-09-12T09:26:22.309Z,101080.44
2022-09-12T09:27:39.967Z,101073.13
2022-09-12T09:28:46.069Z,101081.06
2022-09-12T09:29:45.481Z,101085.63
2022-09-12T09:30:36.082Z,101088.03
2022-09-12T09:31:25.027Z,101084.28
2022-09-12T09:32:27.700Z,101080.53
2022-09-12T09:33:23.338Z,101079.75
2022-09-12T09:34:18.218Z,101079.19
2022-09-12T09:35:42.866Z,101078.22
2022-09-12T09:36:38.473Z,101078.72
2022-09-12T09:37:44.581Z,101078.66
2022-09-12T09:38:40.912Z,101078.66
2022-09-12T09:39:51.502Z,101077.84
2022-09-12T09:40:54.126Z,101077.19
2022-09-12T09:42:11.407Z,101077.19
2022-09-12T09:43:05.278Z,101072.53
2022-09-12T09:43:51.917Z,101076.53
2022-09-12T09:44:38.968Z,101074.66
2022-09-12T09:45:29.036Z,101079.97
2022-09-12T09:46:16.192Z,101076.19
2022-09-12T09:47:03.047Z,101074.88
2022-09-12T09:48:13.244Z,101075.06
2022-09-12T09:49:10.408Z,101069.09
2022-09-12T09:49:56.971Z,101068.69
2022-09-12T09:50:46.058Z,101077.13
2022-09-12T09:51:37.499Z,101069.00
2022-09-12T09:52:30.565Z,101065.66
2022-09-12T09:53:33.542Z,101073.72
2022-09-12T09:54:34.050Z,101064.50
2022-09-12T09:55:30.897Z,101061.06
2022-09-12T09:56:40.037Z,101061.34